Hovedside
METAR-TAF:

METAR-TAF

Lufthavner :

Alturas Municipal Airport

Alturas, California, USA

breddegrad: 41-29-29N, lengdegrad: 120-33-52W, høyde over havet: 1333 m

Gjeldene værobservasjon

Denne rapporten ble laget for 20 minutter siden, klokken 10:55 UTC
Vind 16 kt fra Sør med vindkast opp mot 21 kt
Temperatur 4°C
Luftfuktighet 81%
Trykk 1012 hPa
Sikt: 16.1 km
Spredte skyer i en høyde av 7000 ft
Brutte skyer i en høyde av 9000 ft

METAR: KAAT 071055Z AUTO 18016G21KT 10SM SCT070 BKN090 04/01 A2988 RMK AO2 SLP110 T00440006

Tid: 03:15 (11:15 UTC)


TAF: fraværende

Værobservasjoner og værvarsel for over 4000 flyplasser (METAR- og TAF-rapporter).

Tilgjengelige stasjoner er representert av de røde og gule prikkene på kartet.

Hold musepekeren over prikken for å se navnet på stasjonen.

Klikk så for å se værobservasjoner og -varsler.

For å forandre kartet kan du klikke på den grønne knappen med svart kryss for å zoome inn, på den grønne knappen med strek for å zoome ut, eller på de grønne pilene for å se tilstøtende kart.


METAR-TAF: